PWSweather.com
Personal Weather Stations
Station Observations
BLACKWELL
Blackwell, AlfretonGB DE55

BlackwellAlfretonGB DE55

Lat: 53.12076, Lon: -1.354978

Elevation: 410

Station Type: Vantage Pro

High Low Average
Temperature 53.1°F11.7°C 33.3°F0.7°C 43.0°F6.1°C
Dew Point 44.1°F6.7°C 31.5°F-0.3°C 37.5°F3.1°C
Winds 6.0 mph 9.7 kmh Calm Calm 2.0 mph SW3.2 kmh SW
Wind Gusts 14.0 mph22.5 kmh -- 5.0 mph8.0 kmh
Humidity 95% 54% 82%
Pressure 29.52 in999.7 mb 29.40 in995.6 mb -
Precipitation 0.13 in3.3 mm - -
Hour Temp Dew Point Humidity Winds Wind Gusts Pressure Precip Precip Rate Daily Precip Total
12:44 AM 36.3°F2.4°C 33.6°F0.9°C 90% Calm Calm 1.0 mph1.6 kmh 29.44 in997.0 mb 0.00 in0.0 mm 0.00 in0.0 mm 0.00 in0.0 mm
01:44 AM 34.7°F1.5°C 32.4°F0.2°C 91% Calm Calm -- 29.44 in997.0 mb 0.00 in0.0 mm 0.00 in0.0 mm 0.00 in0.0 mm
02:44 AM 33.3°F0.7°C 31.5°F-0.3°C 93% Calm Calm 1.0 mph1.6 kmh 29.43 in996.6 mb 0.00 in0.0 mm 0.00 in0.0 mm 0.00 in0.0 mm
03:44 AM 34.0°F1.1°C 32.4°F0.2°C 94% Calm Calm 1.0 mph1.6 kmh 29.43 in996.6 mb 0.00 in0.0 mm 0.00 in0.0 mm 0.00 in0.0 mm
04:44 AM 35.1°F1.7°C 33.4°F0.8°C 94% Calm Calm 2.0 mph3.2 kmh 29.43 in996.6 mb 0.00 in0.0 mm 0.00 in0.0 mm 0.00 in0.0 mm
05:44 AM 34.9°F1.6°C 32.7°F0.4°C 92% Calm Calm 1.0 mph1.6 kmh 29.45 in997.3 mb 0.00 in0.0 mm 0.00 in0.0 mm 0.00 in0.0 mm
06:44 AM 35.1°F1.7°C 33.6°F0.9°C 94% Calm Calm 1.0 mph1.6 kmh 29.46 in997.6 mb 0.00 in0.0 mm 0.00 in0.0 mm 0.00 in0.0 mm
07:44 AM 35.4°F1.9°C 34.0°F1.1°C 94% Calm Calm 2.0 mph3.2 kmh 29.46 in997.6 mb 0.00 in0.0 mm 0.00 in0.0 mm 0.00 in0.0 mm
08:44 AM 38.5°F3.6°C 36.5°F2.5°C 93% 1.0 mph WSW1.6 kmh WSW 7.0 mph11.3 kmh 29.47 in998.0 mb 0.00 in0.0 mm 0.00 in0.0 mm 0.00 in0.0 mm
09:44 AM 43.9°F6.6°C 39.4°F4.1°C 84% 3.0 mph WSW4.8 kmh WSW 9.0 mph14.5 kmh 29.47 in998.0 mb 0.00 in0.0 mm 0.00 in0.0 mm 0.00 in0.0 mm
10:44 AM 47.3°F8.5°C 39.7°F4.3°C 75% 5.0 mph WSW8.0 kmh WSW 10.0 mph16.1 kmh 29.48 in998.3 mb 0.00 in0.0 mm 0.00 in0.0 mm 0.00 in0.0 mm
11:44 AM 49.5°F9.7°C 40.5°F4.7°C 71% 5.0 mph WSW8.0 kmh WSW 14.0 mph22.5 kmh 29.50 in999.0 mb 0.00 in0.0 mm 0.00 in0.0 mm 0.00 in0.0 mm
12:44 PM 49.8°F9.9°C 38.1°F3.4°C 64% 6.0 mph WSW9.7 kmh WSW 14.0 mph22.5 kmh 29.51 in999.3 mb 0.00 in0.0 mm 0.00 in0.0 mm 0.00 in0.0 mm
01:44 PM 52.9°F11.6°C 38.5°F3.6°C 58% 6.0 mph WSW9.7 kmh WSW 13.0 mph20.9 kmh 29.51 in999.3 mb 0.00 in0.0 mm 0.00 in0.0 mm 0.00 in0.0 mm
02:44 PM 53.1°F11.7°C 36.9°F2.7°C 54% 5.0 mph WSW8.0 kmh WSW 10.0 mph16.1 kmh 29.52 in999.7 mb 0.00 in0.0 mm 0.00 in0.0 mm 0.00 in0.0 mm
03:44 PM 51.4°F10.8°C 35.8°F2.1°C 55% 5.0 mph WSW8.0 kmh WSW 13.0 mph20.9 kmh 29.52 in999.7 mb 0.00 in0.0 mm 0.00 in0.0 mm 0.00 in0.0 mm
04:44 PM 49.3°F9.6°C 37.9°F3.3°C 65% 1.0 mph S1.6 kmh S 6.0 mph9.7 kmh 29.51 in999.3 mb 0.00 in0.0 mm 0.00 in0.0 mm 0.00 in0.0 mm
05:44 PM 47.1°F8.4°C 39.0°F3.9°C 73% Calm Calm 7.0 mph11.3 kmh 29.51 in999.3 mb 0.00 in0.0 mm 0.00 in0.0 mm 0.00 in0.0 mm
06:44 PM 45.3°F7.4°C 39.6°F4.2°C 80% Calm Calm 2.0 mph3.2 kmh 29.51 in999.3 mb 0.00 in0.0 mm 0.00 in0.0 mm 0.00 in0.0 mm
07:44 PM 45.9°F7.7°C 41.0°F5.0°C 83% 1.0 mph S1.6 kmh S 6.0 mph9.7 kmh 29.51 in999.3 mb 0.00 in0.0 mm 0.00 in0.0 mm 0.00 in0.0 mm
08:44 PM 44.2°F6.8°C 41.9°F5.5°C 91% Calm Calm 1.0 mph1.6 kmh 29.48 in998.3 mb 0.01 in0.3 mm 0.00 in0.0 mm 0.01 in0.3 mm
09:44 PM 44.8°F7.1°C 43.2°F6.2°C 94% Calm Calm 1.0 mph1.6 kmh 29.46 in997.6 mb 0.01 in0.3 mm 0.00 in0.0 mm 0.02 in0.5 mm
10:44 PM 45.1°F7.3°C 43.9°F6.6°C 95% Calm Calm 4.0 mph6.4 kmh 29.44 in997.0 mb 0.03 in0.8 mm 0.00 in0.0 mm 0.05 in1.3 mm
11:44 PM 45.3°F7.4°C 44.1°F6.7°C 95% Calm Calm 2.0 mph3.2 kmh 29.40 in995.6 mb 0.09 in2.3 mm 0.00 in0.0 mm 0.13 in3.3 mm